sensor_id;sensor_type;location;lat;lon;timestamp;pressure;altitude;pressure_sealevel;temperature;humidity
22206;BME280;11272;50.104;8.754;2023-05-11T00:01:06;100372.41;;;13.63;74.14
22206;BME280;11272;50.104;8.754;2023-05-11T00:03:34;100366.31;;;13.60;73.95
22206;BME280;11272;50.104;8.754;2023-05-11T00:06:00;100366.31;;;13.60;73.89
22206;BME280;11272;50.104;8.754;2023-05-11T00:08:26;100367.38;;;13.56;73.57
22206;BME280;11272;50.104;8.754;2023-05-11T00:10:51;100369.19;;;13.54;73.70
22206;BME280;11272;50.104;8.754;2023-05-11T00:13:19;100363.97;;;13.51;73.89
22206;BME280;11272;50.104;8.754;2023-05-11T00:15:45;100367.56;;;13.49;73.87
22206;BME280;11272;50.104;8.754;2023-05-11T00:18:11;100365.81;;;13.48;73.64
22206;BME280;11272;50.104;8.754;2023-05-11T00:20:36;100365.81;;;13.48;73.62
22206;BME280;11272;50.104;8.754;2023-05-11T00:23:02;100362.22;;;13.49;73.46
22206;BME280;11272;50.104;8.754;2023-05-11T00:25:28;100364.91;;;13.49;73.42
22206;BME280;11272;50.104;8.754;2023-05-11T00:27:54;100365.81;;;13.48;73.30
22206;BME280;11272;50.104;8.754;2023-05-11T00:30:19;100363.19;;;13.47;73.30
22206;BME280;11272;50.104;8.754;2023-05-11T00:32:45;100368.59;;;13.45;73.17
22206;BME280;11272;50.104;8.754;2023-05-11T00:35:11;100360.59;;;13.45;73.34
22206;BME280;11272;50.104;8.754;2023-05-11T00:37:41;100355.34;;;13.42;73.19
22206;BME280;11272;50.104;8.754;2023-05-11T00:40:07;100360.69;;;13.42;73.51
22206;BME280;11272;50.104;8.754;2023-05-11T00:42:33;100365.22;;;13.40;73.45
22206;BME280;11272;50.104;8.754;2023-05-11T00:44:59;100362.56;;;13.40;73.56
22206;BME280;11272;50.104;8.754;2023-05-11T00:47:24;100363.47;;;13.39;73.55
22206;BME280;11272;50.104;8.754;2023-05-11T00:49:51;100356.34;;;13.40;73.39
22206;BME280;11272;50.104;8.754;2023-05-11T00:52:18;100353.69;;;13.40;73.64
22206;BME280;11272;50.104;8.754;2023-05-11T00:54:48;100354.56;;;13.40;73.63
22206;BME280;11272;50.104;8.754;2023-05-11T00:57:14;100358.16;;;13.39;73.31
22206;BME280;11272;50.104;8.754;2023-05-11T00:59:40;100354.66;;;13.37;73.49
22206;BME280;11272;50.104;8.754;2023-05-11T01:02:05;100356.44;;;13.37;73.42
22206;BME280;11272;50.104;8.754;2023-05-11T01:04:31;100357.34;;;13.36;73.60
22206;BME280;11272;50.104;8.754;2023-05-11T01:07:22;100359.25;;;13.32;73.67
22206;BME280;11272;50.104;8.754;2023-05-11T01:10:12;100361.09;;;13.30;73.49
22206;BME280;11272;50.104;8.754;2023-05-11T01:12:57;100361.19;;;13.29;73.61
22206;BME280;11272;50.104;8.754;2023-05-11T01:15:33;100359.47;;;13.26;73.44
22206;BME280;11272;50.104;8.754;2023-05-11T01:20:54;100365.00;;;13.20;73.55
22206;BME280;11272;50.104;8.754;2023-05-11T01:23:42;100361.53;;;13.18;73.60
22206;BME280;11272;50.104;8.754;2023-05-11T01:26:21;100352.81;;;13.13;73.70
22206;BME280;11272;50.104;8.754;2023-05-11T01:29:25;100359.13;;;13.09;73.91
22206;BME280;11272;50.104;8.754;2023-05-11T01:32:04;100359.28;;;13.04;73.80
22206;BME280;11272;50.104;8.754;2023-05-11T01:34:34;100351.28;;;13.04;73.92
22206;BME280;11272;50.104;8.754;2023-05-11T01:37:09;100354.06;;;13.01;73.89
22206;BME280;11272;50.104;8.754;2023-05-11T01:39:51;100354.09;;;13.00;74.05
22206;BME280;11272;50.104;8.754;2023-05-11T01:42:20;100358.63;;;12.98;74.15
22206;BME280;11272;50.104;8.754;2023-05-11T01:44:50;100365.78;;;12.96;74.05
22206;BME280;11272;50.104;8.754;2023-05-11T01:47:20;100365.88;;;12.93;74.07
22206;BME280;11272;50.104;8.754;2023-05-11T01:49:47;100362.47;;;12.88;74.20
22206;BME280;11272;50.104;8.754;2023-05-11T01:52:17;100356.38;;;12.84;74.35
22206;BME280;11272;50.104;8.754;2023-05-11T01:54:47;100368.03;;;12.82;74.42
22206;BME280;11272;50.104;8.754;2023-05-11T01:57:14;100365.44;;;12.79;74.59
22206;BME280;11272;50.104;8.754;2023-05-11T01:59:44;100368.09;;;12.79;74.69
22206;BME280;11272;50.104;8.754;2023-05-11T02:02:12;100369.03;;;12.78;74.82
22206;BME280;11272;50.104;8.754;2023-05-11T02:04:41;100365.47;;;12.77;74.89
22206;BME280;11272;50.104;8.754;2023-05-11T02:07:12;100370.00;;;12.75;75.04
22206;BME280;11272;50.104;8.754;2023-05-11T02:09:42;100368.28;;;12.73;74.98
22206;BME280;11272;50.104;8.754;2023-05-11T02:12:12;100371.03;;;12.71;75.13
22206;BME280;11272;50.104;8.754;2023-05-11T02:14:40;100371.06;;;12.70;75.49
22206;BME280;11272;50.104;8.754;2023-05-11T02:20:47;100376.53;;;12.65;75.28
22206;BME280;11272;50.104;8.754;2023-05-11T02:23:24;100378.34;;;12.64;75.43
22206;BME280;11272;50.104;8.754;2023-05-11T02:25:54;100378.38;;;12.63;75.52
22206;BME280;11272;50.104;8.754;2023-05-11T02:28:21;100375.75;;;12.61;75.57
22206;BME280;11272;50.104;8.754;2023-05-11T02:30:49;100386.31;;;12.64;75.63
22206;BME280;11272;50.104;8.754;2023-05-11T02:33:19;100376.59;;;12.63;75.65
22206;BME280;11272;50.104;8.754;2023-05-11T02:35:49;100375.66;;;12.64;75.82
22206;BME280;11272;50.104;8.754;2023-05-11T02:38:18;100381.00;;;12.64;75.77
22206;BME280;11272;50.104;8.754;2023-05-11T02:40:48;100381.00;;;12.64;75.76
22206;BME280;11272;50.104;8.754;2023-05-11T02:43:23;100374.03;;;12.60;75.78
22206;BME280;11272;50.104;8.754;2023-05-11T02:46:01;100369.66;;;12.58;75.83
22206;BME280;11272;50.104;8.754;2023-05-11T02:48:31;100368.88;;;12.54;75.96
22206;BME280;11272;50.104;8.754;2023-05-11T02:51:01;100371.59;;;12.53;76.00
22206;BME280;11272;50.104;8.754;2023-05-11T02:53:39;100375.16;;;12.52;76.21
22206;BME280;11272;50.104;8.754;2023-05-11T02:56:06;100381.31;;;12.54;76.31
22206;BME280;11272;50.104;8.754;2023-05-11T02:58:34;100378.66;;;12.54;76.07
22206;BME280;11272;50.104;8.754;2023-05-11T03:01:24;100371.75;;;12.47;76.09
22206;BME280;11272;50.104;8.754;2023-05-11T03:03:50;100372.69;;;12.46;76.04
22206;BME280;11272;50.104;8.754;2023-05-11T03:06:16;100367.41;;;12.44;76.27
22206;BME280;11272;50.104;8.754;2023-05-11T03:08:43;100371.00;;;12.43;76.21
22206;BME280;11272;50.104;8.754;2023-05-11T03:11:10;100371.06;;;12.40;76.36
22206;BME280;11272;50.104;8.754;2023-05-11T03:13:41;100371.16;;;12.37;76.38
22206;BME280;11272;50.104;8.754;2023-05-11T03:16:08;100375.63;;;12.37;76.56
22206;BME280;11272;50.104;8.754;2023-05-11T03:18:36;100380.94;;;12.37;76.59
22206;BME280;11272;50.104;8.754;2023-05-11T03:21:01;100382.69;;;12.38;76.51
22206;BME280;11272;50.104;8.754;2023-05-11T03:23:29;100382.69;;;12.38;76.53
22206;BME280;11272;50.104;8.754;2023-05-11T03:25:56;100381.81;;;12.37;76.30
22206;BME280;11272;50.104;8.754;2023-05-11T03:28:24;100383.59;;;12.37;76.60
22206;BME280;11272;50.104;8.754;2023-05-11T03:30:58;100382.84;;;12.33;76.52
22206;BME280;11272;50.104;8.754;2023-05-11T03:33:23;100381.09;;;12.32;76.74
22206;BME280;11272;50.104;8.754;2023-05-11T03:35:52;100374.91;;;12.30;76.74
22206;BME280;11272;50.104;8.754;2023-05-11T03:38:25;100379.47;;;12.27;76.58
22206;BME280;11272;50.104;8.754;2023-05-11T03:40:53;100379.63;;;12.22;77.01
22206;BME280;11272;50.104;8.754;2023-05-11T03:43:20;100381.44;;;12.20;76.81
22206;BME280;11272;50.104;8.754;2023-05-11T03:45:52;100384.19;;;12.17;76.86
22206;BME280;11272;50.104;8.754;2023-05-11T03:48:20;100372.81;;;12.12;76.99
22206;BME280;11272;50.104;8.754;2023-05-11T03:50:46;100370.16;;;12.12;77.21
22206;BME280;11272;50.104;8.754;2023-05-11T03:53:15;100379.81;;;12.14;77.17
22206;BME280;11272;50.104;8.754;2023-05-11T03:55:41;100381.56;;;12.15;76.94
22206;BME280;11272;50.104;8.754;2023-05-11T03:58:08;100385.19;;;12.13;77.25
22206;BME280;11272;50.104;8.754;2023-05-11T04:00:38;100372.84;;;12.10;77.39
22206;BME280;11272;50.104;8.754;2023-05-11T04:03:04;100374.66;;;12.08;77.40
22206;BME280;11272;50.104;8.754;2023-05-11T04:05:30;100376.41;;;12.09;77.76
22206;BME280;11272;50.104;8.754;2023-05-11T04:07:57;100371.06;;;12.11;77.97
22206;BME280;11272;50.104;8.754;2023-05-11T04:10:23;100371.97;;;12.10;77.71
22206;BME280;11272;50.104;8.754;2023-05-11T04:12:49;100375.47;;;12.12;77.86
22206;BME280;11272;50.104;8.754;2023-05-11T04:15:15;100383.47;;;12.12;77.96
22206;BME280;11272;50.104;8.754;2023-05-11T04:17:41;100378.94;;;12.14;78.16
22206;BME280;11272;50.104;8.754;2023-05-11T04:20:06;100383.31;;;12.16;78.19
22206;BME280;11272;50.104;8.754;2023-05-11T04:22:32;100379.75;;;12.17;78.06
22206;BME280;11272;50.104;8.754;2023-05-11T04:24:57;100384.09;;;12.20;78.21
22206;BME280;11272;50.104;8.754;2023-05-11T04:27:23;100378.63;;;12.24;78.21
22206;BME280;11272;50.104;8.754;2023-05-11T04:29:49;100386.47;;;12.29;78.13
22206;BME280;11272;50.104;8.754;2023-05-11T04:32:15;100380.25;;;12.30;78.21
22206;BME280;11272;50.104;8.754;2023-05-11T04:34:41;100381.97;;;12.33;78.49
22206;BME280;11272;50.104;8.754;2023-05-11T04:37:08;100386.31;;;12.35;78.37
22206;BME280;11272;50.104;8.754;2023-05-11T04:39:35;100383.56;;;12.38;78.33
22206;BME280;11272;50.104;8.754;2023-05-11T04:42:02;100393.25;;;12.41;78.41
22206;BME280;11272;50.104;8.754;2023-05-11T04:44:28;100397.53;;;12.46;78.28
22206;BME280;11272;50.104;8.754;2023-05-11T04:46:54;100389.38;;;12.51;78.17
22206;BME280;11272;50.104;8.754;2023-05-11T04:49:20;100396.31;;;12.56;78.22
22206;BME280;11272;50.104;8.754;2023-05-11T04:51:46;100390.81;;;12.62;78.25
22206;BME280;11272;50.104;8.754;2023-05-11T04:54:14;100394.22;;;12.68;78.13
22206;BME280;11272;50.104;8.754;2023-05-11T04:56:39;100391.38;;;12.74;78.34
22206;BME280;11272;50.104;8.754;2023-05-11T04:59:06;100395.75;;;12.76;78.07
22206;BME280;11272;50.104;8.754;2023-05-11T05:01:32;100392.09;;;12.79;78.24
22206;BME280;11272;50.104;8.754;2023-05-11T05:03:57;100395.44;;;12.85;78.04
22206;BME280;11272;50.104;8.754;2023-05-11T05:06:23;100395.28;;;12.90;77.93
22206;BME280;11272;50.104;8.754;2023-05-11T05:08:49;100401.34;;;12.95;77.78
22206;BME280;11272;50.104;8.754;2023-05-11T05:11:14;100399.41;;;13.00;77.68
22206;BME280;11272;50.104;8.754;2023-05-11T05:13:40;100393.88;;;13.06;77.84
22206;BME280;11272;50.104;8.754;2023-05-11T05:16:06;100402.53;;;13.14;77.71
22206;BME280;11272;50.104;8.754;2023-05-11T05:18:31;100405.88;;;13.21;77.64
22206;BME280;11272;50.104;8.754;2023-05-11T05:20:58;100407.47;;;13.26;77.62
22206;BME280;11272;50.104;8.754;2023-05-11T05:23:24;100402.94;;;13.30;77.17
22206;BME280;11272;50.104;8.754;2023-05-11T05:25:50;100407.28;;;13.32;77.11
22206;BME280;11272;50.104;8.754;2023-05-11T05:28:15;100409.84;;;13.35;76.85
22206;BME280;11272;50.104;8.754;2023-05-11T05:30:41;100412.38;;;13.40;76.78
22206;BME280;11272;50.104;8.754;2023-05-11T05:33:07;100413.97;;;13.45;76.77
22206;BME280;11272;50.104;8.754;2023-05-11T05:35:34;100409.34;;;13.51;76.71
22206;BME280;11272;50.104;8.754;2023-05-11T05:38:00;100406.47;;;13.57;76.67
22206;BME280;11272;50.104;8.754;2023-05-11T05:40:25;100413.44;;;13.61;76.45
22206;BME280;11272;50.104;8.754;2023-05-11T05:42:54;100411.56;;;13.63;76.19
22206;BME280;11272;50.104;8.754;2023-05-11T05:45:23;100410.47;;;13.68;76.34
22206;BME280;11272;50.104;8.754;2023-05-11T05:47:49;100418.28;;;13.74;76.22
22206;BME280;11272;50.104;8.754;2023-05-11T05:50:16;100422.53;;;13.80;76.13
22206;BME280;11272;50.104;8.754;2023-05-11T05:52:42;100421.50;;;13.84;75.89
22206;BME280;11272;50.104;8.754;2023-05-11T05:55:08;100418.63;;;13.90;75.97
22206;BME280;11272;50.104;8.754;2023-05-11T05:57:34;100417.53;;;13.96;75.59
22206;BME280;11272;50.104;8.754;2023-05-11T06:00:01;100420.88;;;14.02;75.94
22206;BME280;11272;50.104;8.754;2023-05-11T06:02:27;100421.53;;;14.09;75.20
22206;BME280;11272;50.104;8.754;2023-05-11T06:04:53;100431.91;;;14.16;75.47
22206;BME280;11272;50.104;8.754;2023-05-11T06:07:19;100434.50;;;14.19;75.00
22206;BME280;11272;50.104;8.754;2023-05-11T06:09:45;100423.69;;;14.22;75.15
22206;BME280;11272;50.104;8.754;2023-05-11T06:12:13;100429.81;;;14.26;74.73
22206;BME280;11272;50.104;8.754;2023-05-11T06:14:42;100433.41;;;14.25;74.32
22206;BME280;11272;50.104;8.754;2023-05-11T06:17:08;100427.94;;;14.28;74.29
22206;BME280;11272;50.104;8.754;2023-05-11T06:19:33;100429.53;;;14.32;74.39
22206;BME280;11272;50.104;8.754;2023-05-11T06:21:59;100425.75;;;14.39;74.12
22206;BME280;11272;50.104;8.754;2023-05-11T06:24:26;100423.94;;;14.41;73.97
22206;BME280;11272;50.104;8.754;2023-05-11T06:26:51;100431.00;;;14.42;73.63
22206;BME280;11272;50.104;8.754;2023-05-11T06:29:18;100429.25;;;14.41;73.70
22206;BME280;11272;50.104;8.754;2023-05-11T06:31:47;100430.88;;;14.45;73.74
22206;BME280;11272;50.104;8.754;2023-05-11T06:34:19;100429.88;;;14.48;73.15
22206;BME280;11272;50.104;8.754;2023-05-11T06:36:47;100428.16;;;14.47;73.35
22206;BME280;11272;50.104;8.754;2023-05-11T06:39:13;100431.72;;;14.47;73.10
22206;BME280;11272;50.104;8.754;2023-05-11T06:41:39;100436.06;;;14.50;73.32
22206;BME280;11272;50.104;8.754;2023-05-11T06:44:05;100435.00;;;14.54;73.55
22206;BME280;11272;50.104;8.754;2023-05-11T06:46:35;100437.56;;;14.57;73.10
22206;BME280;11272;50.104;8.754;2023-05-11T06:49:01;100432.28;;;14.55;72.83
22206;BME280;11272;50.104;8.754;2023-05-11T06:51:27;100429.44;;;14.60;72.85
22206;BME280;11272;50.104;8.754;2023-05-11T06:53:52;100431.91;;;14.64;72.97
22206;BME280;11272;50.104;8.754;2023-05-11T06:56:18;100431.00;;;14.65;72.68
22206;BME280;11272;50.104;8.754;2023-05-11T06:58:43;100429.94;;;14.69;72.72
22206;BME280;11272;50.104;8.754;2023-05-11T07:01:10;100433.22;;;14.78;72.74
22206;BME280;11272;50.104;8.754;2023-05-11T07:03:36;100433.72;;;14.87;72.66
22206;BME280;11272;50.104;8.754;2023-05-11T07:06:02;100429.88;;;14.94;72.96
22206;BME280;11272;50.104;8.754;2023-05-11T07:08:27;100427.75;;;15.02;72.67
22206;BME280;11272;50.104;8.754;2023-05-11T07:10:53;100424.75;;;15.11;72.44
22206;BME280;11272;50.104;8.754;2023-05-11T07:13:18;100430.69;;;15.18;72.36
22206;BME280;11272;50.104;8.754;2023-05-11T07:15:44;100429.56;;;15.24;72.37
22206;BME280;11272;50.104;8.754;2023-05-11T07:18:10;100432.16;;;15.27;72.27
22206;BME280;11272;50.104;8.754;2023-05-11T07:20:35;100433.38;;;15.40;72.18
22206;BME280;11272;50.104;8.754;2023-05-11T07:23:01;100431.78;;;15.57;71.85
22206;BME280;11272;50.104;8.754;2023-05-11T07:25:28;100432.00;;;15.73;71.69
22206;BME280;11272;50.104;8.754;2023-05-11T07:27:54;100430.41;;;15.89;71.51
22206;BME280;11272;50.104;8.754;2023-05-11T07:30:20;100433.44;;;16.02;70.89
22206;BME280;11272;50.104;8.754;2023-05-11T07:32:46;100428.66;;;16.09;70.38
22206;BME280;11272;50.104;8.754;2023-05-11T07:35:12;100433.22;;;16.07;69.86
22206;BME280;11272;50.104;8.754;2023-05-11T07:37:39;100442.41;;;16.01;69.83
22206;BME280;11272;50.104;8.754;2023-05-11T07:40:07;100436.28;;;15.97;69.73
22206;BME280;11272;50.104;8.754;2023-05-11T07:42:36;100440.84;;;15.95;69.90
22206;BME280;11272;50.104;8.754;2023-05-11T07:45:02;100440.81;;;15.97;69.42
22206;BME280;11272;50.104;8.754;2023-05-11T07:47:28;100433.59;;;15.97;69.19
22206;BME280;11272;50.104;8.754;2023-05-11T07:49:53;100441.63;;;15.97;69.19
22206;BME280;11272;50.104;8.754;2023-05-11T07:52:19;100439.66;;;16.03;69.31
22206;BME280;11272;50.104;8.754;2023-05-11T07:54:44;100431.41;;;16.07;68.97
22206;BME280;11272;50.104;8.754;2023-05-11T07:57:10;100435.97;;;16.05;68.87
22206;BME280;11272;50.104;8.754;2023-05-11T07:59:39;100430.41;;;16.10;69.24
22206;BME280;11272;50.104;8.754;2023-05-11T08:02:06;100436.16;;;16.21;69.02
22206;BME280;11272;50.104;8.754;2023-05-11T08:04:34;100425.84;;;16.32;68.97
22206;BME280;11272;50.104;8.754;2023-05-11T08:07:00;100427.97;;;16.44;68.81
22206;BME280;11272;50.104;8.754;2023-05-11T08:09:26;100430.06;;;16.56;68.69
22206;BME280;11272;50.104;8.754;2023-05-11T08:11:53;100426.91;;;16.67;68.55
22206;BME280;11272;50.104;8.754;2023-05-11T08:14:23;100433.75;;;16.74;68.12
22206;BME280;11272;50.104;8.754;2023-05-11T08:16:49;100433.53;;;16.78;67.80
22206;BME280;11272;50.104;8.754;2023-05-11T08:19:15;100435.28;;;16.79;67.63
22206;BME280;11272;50.104;8.754;2023-05-11T08:21:41;100429.09;;;16.77;67.42
22206;BME280;11272;50.104;8.754;2023-05-11T08:24:08;100422.56;;;16.83;67.38
22206;BME280;11272;50.104;8.754;2023-05-11T08:26:34;100430.34;;;16.89;67.36
22206;BME280;11272;50.104;8.754;2023-05-11T08:28:59;100425.78;;;16.91;67.20
22206;BME280;11272;50.104;8.754;2023-05-11T08:31:29;100435.19;;;17.00;67.20
22206;BME280;11272;50.104;8.754;2023-05-11T08:33:55;100425.75;;;17.10;67.09
22206;BME280;11272;50.104;8.754;2023-05-11T08:36:21;100425.22;;;17.20;67.03
22206;BME280;11272;50.104;8.754;2023-05-11T08:38:47;100429.25;;;17.31;66.97
22206;BME280;11272;50.104;8.754;2023-05-11T08:41:13;100428.59;;;17.43;66.70
22206;BME280;11272;50.104;8.754;2023-05-11T08:43:39;100431.63;;;17.54;66.55
22206;BME280;11272;50.104;8.754;2023-05-11T08:46:06;100426.78;;;17.62;66.04
22206;BME280;11272;50.104;8.754;2023-05-11T08:48:33;100427.31;;;17.68;66.12
22206;BME280;11272;50.104;8.754;2023-05-11T08:50:59;100433.34;;;17.74;65.58
22206;BME280;11272;50.104;8.754;2023-05-11T08:53:26;100422.59;;;17.74;65.28
22206;BME280;11272;50.104;8.754;2023-05-11T08:55:54;100425.94;;;17.79;64.85
22206;BME280;11272;50.104;8.754;2023-05-11T08:58:22;100423.47;;;17.74;64.60
22206;BME280;11272;50.104;8.754;2023-05-11T09:00:49;100428.31;;;17.67;64.76
22206;BME280;11272;50.104;8.754;2023-05-11T09:03:16;100425.81;;;17.63;64.66
22206;BME280;11272;50.104;8.754;2023-05-11T09:05:44;100428.59;;;17.61;64.63
22206;BME280;11272;50.104;8.754;2023-05-11T09:08:14;100432.16;;;17.62;64.60
22206;BME280;11272;50.104;8.754;2023-05-11T09:10:42;100439.19;;;17.64;64.66
22206;BME280;11272;50.104;8.754;2023-05-11T09:13:09;100428.44;;;17.64;64.29
22206;BME280;11272;50.104;8.754;2023-05-11T09:15:34;100435.19;;;17.54;64.15
22206;BME280;11272;50.104;8.754;2023-05-11T09:18:00;100444.41;;;17.49;64.30
22206;BME280;11272;50.104;8.754;2023-05-11T09:20:29;100431.06;;;17.47;64.41
22206;BME280;11272;50.104;8.754;2023-05-11T09:22:56;100439.28;;;17.44;64.20
22206;BME280;11272;50.104;8.754;2023-05-11T09:25:23;100428.19;;;17.33;64.43
22206;BME280;11272;50.104;8.754;2023-05-11T09:27:49;100429.25;;;17.31;64.40
22206;BME280;11272;50.104;8.754;2023-05-11T09:30:17;100434.75;;;17.27;64.40
22206;BME280;11272;50.104;8.754;2023-05-11T09:35:20;100436.06;;;17.19;64.31
22206;BME280;11272;50.104;8.754;2023-05-11T09:38:09;100426.06;;;17.04;64.51
22206;BME280;11272;50.104;8.754;2023-05-11T09:40:37;100431.09;;;16.93;64.90
22206;BME280;11272;50.104;8.754;2023-05-11T09:43:24;100435.00;;;16.86;64.93
22206;BME280;11272;50.104;8.754;2023-05-11T09:45:52;100437.94;;;16.79;65.11
22206;BME280;11272;50.104;8.754;2023-05-11T09:50:49;100431.28;;;16.69;65.57
22206;BME280;11272;50.104;8.754;2023-05-11T09:53:15;100436.38;;;16.75;65.72
22206;BME280;11272;50.104;8.754;2023-05-11T09:55:51;100432.47;;;16.82;65.68
22206;BME280;11272;50.104;8.754;2023-05-11T09:58:17;100432.03;;;16.92;65.86
22206;BME280;11272;50.104;8.754;2023-05-11T10:00:50;100425.63;;;16.94;65.33
22206;BME280;11272;50.104;8.754;2023-05-11T10:03:17;100425.63;;;16.94;65.42
22206;BME280;11272;50.104;8.754;2023-05-11T10:05:59;100429.19;;;16.95;65.43
22206;BME280;11272;50.104;8.754;2023-05-11T10:08:30;100426.22;;;17.01;65.55
22206;BME280;11272;50.104;8.754;2023-05-11T10:10:56;100426.63;;;17.10;65.50
22206;BME280;11272;50.104;8.754;2023-05-11T10:13:25;100419.88;;;17.20;65.30
22206;BME280;11272;50.104;8.754;2023-05-11T10:15:51;100422.25;;;17.26;64.99
22206;BME280;11272;50.104;8.754;2023-05-11T10:18:18;100422.25;;;17.26;64.84
22206;BME280;11272;50.104;8.754;2023-05-11T10:20:44;100424.16;;;17.24;64.84
22206;BME280;11272;50.104;8.754;2023-05-11T10:23:11;100422.47;;;17.22;64.62
22206;BME280;11272;50.104;8.754;2023-05-11T10:25:37;100416.75;;;17.11;64.70
22206;BME280;11272;50.104;8.754;2023-05-11T10:28:03;100423.41;;;17.04;64.86
22206;BME280;11272;50.104;8.754;2023-05-11T10:30:29;100419.84;;;17.03;64.87
22206;BME280;11272;50.104;8.754;2023-05-11T10:32:59;100419.53;;;17.09;65.07
22206;BME280;11272;50.104;8.754;2023-05-11T10:35:25;100414.72;;;17.16;64.85
22206;BME280;11272;50.104;8.754;2023-05-11T10:37:51;100424.22;;;17.23;65.05
22206;BME280;11272;50.104;8.754;2023-05-11T10:40:17;100413.97;;;17.31;65.07
22206;BME280;11272;50.104;8.754;2023-05-11T10:43:21;100420.31;;;17.47;64.98
22206;BME280;11272;50.104;8.754;2023-05-11T10:54:40;100415.72;;;18.02;64.58
22206;BME280;11272;50.104;8.754;2023-05-11T10:57:29;100410.66;;;18.14;64.25
22206;BME280;11272;50.104;8.754;2023-05-11T11:02:34;100405.34;;;18.29;64.24
22206;BME280;11272;50.104;8.754;2023-05-11T11:05:00;100404.47;;;18.29;63.66
22206;BME280;11272;50.104;8.754;2023-05-11T11:08:00;100403.25;;;18.34;63.82
22206;BME280;11272;50.104;8.754;2023-05-11T11:10:32;100397.72;;;18.37;63.57
22206;BME280;11272;50.104;8.754;2023-05-11T11:13:02;100395.66;;;18.42;63.38
22206;BME280;11272;50.104;8.754;2023-05-11T11:18:28;100397.63;;;18.56;63.25
22206;BME280;11272;50.104;8.754;2023-05-11T11:20:55;100401.34;;;18.54;63.63
22206;BME280;11272;50.104;8.754;2023-05-11T11:26:10;100399.19;;;18.76;63.21
22206;BME280;11272;50.104;8.754;2023-05-11T11:31:28;100393.16;;;18.88;62.83
22206;BME280;11272;50.104;8.754;2023-05-11T11:33:56;100389.31;;;18.92;62.82
22206;BME280;11272;50.104;8.754;2023-05-11T11:42:10;100389.63;;;18.55;62.46
22206;BME280;11272;50.104;8.754;2023-05-11T11:44:37;100387.75;;;18.39;62.73
22206;BME280;11272;50.104;8.754;2023-05-11T11:47:13;100390.56;;;18.21;62.69
22206;BME280;11272;50.104;8.754;2023-05-11T11:49:40;100392.09;;;18.09;62.70
22206;BME280;11272;50.104;8.754;2023-05-11T11:52:13;100398.28;;;17.94;63.08
22206;BME280;11272;50.104;8.754;2023-05-11T11:54:39;100396.28;;;17.80;63.57
22206;BME280;11272;50.104;8.754;2023-05-11T12:00:00;100392.38;;;17.51;64.24
22206;BME280;11272;50.104;8.754;2023-05-11T12:02:27;100392.63;;;17.47;64.58
22206;BME280;11272;50.104;8.754;2023-05-11T12:04:59;100397.56;;;17.37;64.75
22206;BME280;11272;50.104;8.754;2023-05-11T12:07:25;100405.13;;;17.29;65.08
22206;BME280;11272;50.104;8.754;2023-05-11T12:09:51;100396.59;;;17.21;65.57
22206;BME280;11272;50.104;8.754;2023-05-11T12:12:18;100395.16;;;17.14;66.22
22206;BME280;11272;50.104;8.754;2023-05-11T12:14:48;100397.50;;;17.03;67.26
22206;BME280;11272;50.104;8.754;2023-05-11T12:17:25;100397.91;;;16.94;68.58
22206;BME280;11272;50.104;8.754;2023-05-11T12:19:52;100399.31;;;16.83;69.75
22206;BME280;11272;50.104;8.754;2023-05-11T12:22:23;100399.78;;;16.54;71.34
22206;BME280;11272;50.104;8.754;2023-05-11T12:24:49;100401.38;;;16.39;73.80
22206;BME280;11272;50.104;8.754;2023-05-11T12:27:18;100402.84;;;16.26;75.64
22206;BME280;11272;50.104;8.754;2023-05-11T12:29:48;100408.53;;;16.19;77.63
22206;BME280;11272;50.104;8.754;2023-05-11T12:32:14;100408.84;;;16.13;78.82
22206;BME280;11272;50.104;8.754;2023-05-11T12:34:39;100407.38;;;16.06;79.73
22206;BME280;11272;50.104;8.754;2023-05-11T12:37:05;100408.09;;;15.89;80.38
22206;BME280;11272;50.104;8.754;2023-05-11T12:39:31;100407.22;;;15.88;82.24
22206;BME280;11272;50.104;8.754;2023-05-11T12:41:57;100405.75;;;15.81;83.33
22206;BME280;11272;50.104;8.754;2023-05-11T12:44:24;100401.34;;;15.80;84.34
22206;BME280;11272;50.104;8.754;2023-05-11T12:46:51;100403.00;;;15.83;85.47
22206;BME280;11272;50.104;8.754;2023-05-11T12:49:23;100400.13;;;15.87;86.28
22206;BME280;11272;50.104;8.754;2023-05-11T12:54:31;100393.97;;;16.06;88.89
22206;BME280;11272;50.104;8.754;2023-05-11T12:56:58;100399.00;;;16.13;89.66
22206;BME280;11272;50.104;8.754;2023-05-11T13:01:49;100393.91;;;16.07;90.52
22206;BME280;11272;50.104;8.754;2023-05-11T13:04:15;100390.47;;;16.04;91.45
22206;BME280;11272;50.104;8.754;2023-05-11T13:06:43;100385.47;;;15.96;92.16
22206;BME280;11272;50.104;8.754;2023-05-11T13:09:09;100391.81;;;15.93;92.59
22206;BME280;11272;50.104;8.754;2023-05-11T13:11:35;100387.00;;;15.81;92.96
22206;BME280;11272;50.104;8.754;2023-05-11T13:14:16;100385.41;;;15.77;93.76
22206;BME280;11272;50.104;8.754;2023-05-11T13:16:51;100385.81;;;15.68;93.92
22206;BME280;11272;50.104;8.754;2023-05-11T13:19:26;100378.72;;;15.67;95.40
22206;BME280;11272;50.104;8.754;2023-05-11T13:21:53;100380.59;;;15.65;95.11
22206;BME280;11272;50.104;8.754;2023-05-11T13:24:20;100388.69;;;15.64;96.56
22206;BME280;11272;50.104;8.754;2023-05-11T13:26:45;100384.00;;;15.69;97.14
22206;BME280;11272;50.104;8.754;2023-05-11T13:29:11;100384.94;;;15.68;96.98
22206;BME280;11272;50.104;8.754;2023-05-11T13:31:44;100380.41;;;15.70;98.08
22206;BME280;11272;50.104;8.754;2023-05-11T13:34:13;100372.94;;;15.76;98.83
22206;BME280;11272;50.104;8.754;2023-05-11T13:36:39;100378.78;;;15.86;99.09
22206;BME280;11272;50.104;8.754;2023-05-11T13:39:05;100370.66;;;15.87;99.24
22206;BME280;11272;50.104;8.754;2023-05-11T13:41:31;100379.47;;;15.91;100.00